sensor_id;sensor_type;location;lat;lon;timestamp;pressure;altitude;pressure_sealevel;temperature;humidity
68329;BME280;55182;56.864;60.554;2023-05-20T00:01:57;75905.72;;;-143.60;60.54
68329;BME280;55182;56.864;60.554;2023-05-20T00:04:23;75917.78;;;-143.60;60.47
68329;BME280;55182;56.864;60.554;2023-05-20T00:06:48;75921.78;;;-143.60;60.66
68329;BME280;55182;56.864;60.554;2023-05-20T00:09:14;75921.78;;;-143.60;61.12
68329;BME280;55182;56.864;60.554;2023-05-20T00:11:39;75927.81;;;-143.60;61.19
68329;BME280;55182;56.864;60.554;2023-05-20T00:14:04;75929.81;;;-143.60;61.17
68329;BME280;55182;56.864;60.554;2023-05-20T00:16:30;75929.81;;;-143.60;61.35
68329;BME280;55182;56.864;60.554;2023-05-20T00:18:55;75925.81;;;-143.60;61.71
68329;BME280;55182;56.864;60.554;2023-05-20T00:21:21;75917.78;;;-143.60;62.04
68329;BME280;55182;56.864;60.554;2023-05-20T00:23:47;75919.78;;;-143.60;61.80
68329;BME280;55182;56.864;60.554;2023-05-20T00:26:12;75919.78;;;-143.60;62.59
68329;BME280;55182;56.864;60.554;2023-05-20T00:28:39;75925.81;;;-143.60;63.10
68329;BME280;55182;56.864;60.554;2023-05-20T00:31:05;75919.78;;;-143.60;63.23
68329;BME280;55182;56.864;60.554;2023-05-20T00:33:32;75917.78;;;-143.60;63.65
68329;BME280;55182;56.864;60.554;2023-05-20T00:35:57;75917.78;;;-143.60;63.64
68329;BME280;55182;56.864;60.554;2023-05-20T00:38:23;75913.75;;;-143.60;64.00
68329;BME280;55182;56.864;60.554;2023-05-20T00:40:48;75913.75;;;-143.60;64.18
68329;BME280;55182;56.864;60.554;2023-05-20T00:43:14;75905.72;;;-143.60;63.98
68329;BME280;55182;56.864;60.554;2023-05-20T00:45:39;75889.63;;;-143.60;63.95
68329;BME280;55182;56.864;60.554;2023-05-20T00:48:05;75891.66;;;-143.60;64.43
68329;BME280;55182;56.864;60.554;2023-05-20T00:50:31;75885.63;;;-143.60;64.76
68329;BME280;55182;56.864;60.554;2023-05-20T00:52:56;75881.59;;;-143.60;64.76
68329;BME280;55182;56.864;60.554;2023-05-20T00:55:22;75881.59;;;-143.60;64.74
68329;BME280;55182;56.864;60.554;2023-05-20T00:57:48;75867.53;;;-143.60;65.07
68329;BME280;55182;56.864;60.554;2023-05-20T01:00:13;75857.50;;;-143.60;65.70
68329;BME280;55182;56.864;60.554;2023-05-20T01:02:39;75845.44;;;-143.60;65.53
68329;BME280;55182;56.864;60.554;2023-05-20T01:05:04;75837.41;;;-143.60;64.88
68329;BME280;55182;56.864;60.554;2023-05-20T01:07:30;75839.41;;;-143.60;64.97
68329;BME280;55182;56.864;60.554;2023-05-20T01:09:55;75833.38;;;-143.60;65.57
68329;BME280;55182;56.864;60.554;2023-05-20T01:12:22;75821.31;;;-143.60;65.69
68329;BME280;55182;56.864;60.554;2023-05-20T01:14:53;75817.31;;;-143.60;65.64
68329;BME280;55182;56.864;60.554;2023-05-20T01:17:20;75809.25;;;-143.60;65.75
68329;BME280;55182;56.864;60.554;2023-05-20T01:19:47;75797.22;;;-143.60;65.78
68329;BME280;55182;56.864;60.554;2023-05-20T01:22:13;75797.22;;;-143.60;65.74
68329;BME280;55182;56.864;60.554;2023-05-20T01:24:40;75785.16;;;-143.60;65.97
68329;BME280;55182;56.864;60.554;2023-05-20T01:27:05;75771.09;;;-143.60;65.64
68329;BME280;55182;56.864;60.554;2023-05-20T01:29:32;75761.03;;;-143.60;65.67
68329;BME280;55182;56.864;60.554;2023-05-20T01:31:57;75749.00;;;-143.60;65.21
68329;BME280;55182;56.864;60.554;2023-05-20T01:34:25;75736.94;;;-143.60;65.05
68329;BME280;55182;56.864;60.554;2023-05-20T01:36:50;75724.88;;;-143.60;64.70
68329;BME280;55182;56.864;60.554;2023-05-20T01:39:16;75708.81;;;-143.60;64.62
68329;BME280;55182;56.864;60.554;2023-05-20T01:41:42;75698.75;;;-143.60;64.37
68329;BME280;55182;56.864;60.554;2023-05-20T01:44:08;75684.69;;;-143.60;63.81
68329;BME280;55182;56.864;60.554;2023-05-20T01:46:34;75676.66;;;-143.60;63.19
68329;BME280;55182;56.864;60.554;2023-05-20T01:48:59;75660.59;;;-143.60;61.77
68329;BME280;55182;56.864;60.554;2023-05-20T01:51:25;75640.50;;;-143.60;59.49
68329;BME280;55182;56.864;60.554;2023-05-20T01:53:50;75622.41;;;-143.60;57.12
68329;BME280;55182;56.864;60.554;2023-05-20T01:56:16;75614.38;;;-143.60;56.31
68329;BME280;55182;56.864;60.554;2023-05-20T01:58:41;75598.28;;;-143.60;54.14
68329;BME280;55182;56.864;60.554;2023-05-20T02:01:07;75576.19;;;-143.60;51.73
68329;BME280;55182;56.864;60.554;2023-05-20T02:03:32;75560.13;;;-143.60;51.42
68329;BME280;55182;56.864;60.554;2023-05-20T02:05:58;75542.03;;;-143.60;50.68
68329;BME280;55182;56.864;60.554;2023-05-20T02:08:23;75515.91;;;-143.60;49.86
68329;BME280;55182;56.864;60.554;2023-05-20T02:10:49;75511.91;;;-143.60;48.28
68329;BME280;55182;56.864;60.554;2023-05-20T02:13:14;75495.81;;;-143.60;48.14
68329;BME280;55182;56.864;60.554;2023-05-20T02:15:40;75479.75;;;-143.60;47.24
68329;BME280;55182;56.864;60.554;2023-05-20T02:18:05;75461.66;;;-143.60;46.36
68329;BME280;55182;56.864;60.554;2023-05-20T02:20:33;75435.56;;;-143.60;44.49
68329;BME280;55182;56.864;60.554;2023-05-20T02:22:59;75419.47;;;-143.60;42.76
68329;BME280;55182;56.864;60.554;2023-05-20T02:25:25;75403.41;;;-143.60;43.46
68329;BME280;55182;56.864;60.554;2023-05-20T02:27:50;75389.34;;;-143.60;43.59
68329;BME280;55182;56.864;60.554;2023-05-20T02:30:15;75375.28;;;-143.60;42.66
68329;BME280;55182;56.864;60.554;2023-05-20T02:32:41;75363.22;;;-143.60;41.77
68329;BME280;55182;56.864;60.554;2023-05-20T02:35:07;75345.16;;;-143.60;40.97
68329;BME280;55182;56.864;60.554;2023-05-20T02:37:32;75331.06;;;-143.60;41.60
68329;BME280;55182;56.864;60.554;2023-05-20T02:39:57;75319.03;;;-143.60;40.50
68329;BME280;55182;56.864;60.554;2023-05-20T02:42:23;75296.94;;;-143.60;38.76
68329;BME280;55182;56.864;60.554;2023-05-20T02:44:49;75270.81;;;-143.60;38.06
68329;BME280;55182;56.864;60.554;2023-05-20T02:47:14;75252.72;;;-143.60;37.76
68329;BME280;55182;56.864;60.554;2023-05-20T02:49:40;75226.59;;;-143.60;36.88
68329;BME280;55182;56.864;60.554;2023-05-20T02:52:05;75214.56;;;-143.60;36.64
68329;BME280;55182;56.864;60.554;2023-05-20T02:54:31;75194.47;;;-143.60;37.17
68329;BME280;55182;56.864;60.554;2023-05-20T02:56:57;75194.47;;;-143.60;37.61
68329;BME280;55182;56.864;60.554;2023-05-20T02:59:22;75192.47;;;-143.60;37.47
68329;BME280;55182;56.864;60.554;2023-05-20T03:01:48;75188.44;;;-143.60;37.78
68329;BME280;55182;56.864;60.554;2023-05-20T03:04:13;75174.38;;;-143.60;36.53
68329;BME280;55182;56.864;60.554;2023-05-20T03:06:39;75160.31;;;-143.60;35.88
68329;BME280;55182;56.864;60.554;2023-05-20T03:09:04;75146.25;;;-143.60;36.45
68329;BME280;55182;56.864;60.554;2023-05-20T03:11:30;75142.22;;;-143.60;35.83
68329;BME280;55182;56.864;60.554;2023-05-20T03:13:55;75130.19;;;-143.60;35.80
68329;BME280;55182;56.864;60.554;2023-05-20T03:16:21;75112.09;;;-143.60;37.38
68329;BME280;55182;56.864;60.554;2023-05-20T03:18:46;75102.06;;;-143.60;35.61
68329;BME280;55182;56.864;60.554;2023-05-20T03:21:12;75092.00;;;-143.60;35.40
68329;BME280;55182;56.864;60.554;2023-05-20T03:23:38;75081.97;;;-143.60;35.42
68329;BME280;55182;56.864;60.554;2023-05-20T03:26:03;75073.94;;;-143.60;35.55
68329;BME280;55182;56.864;60.554;2023-05-20T03:28:29;75069.91;;;-143.60;36.29
68329;BME280;55182;56.864;60.554;2023-05-20T03:30:54;75061.88;;;-143.60;35.31
68329;BME280;55182;56.864;60.554;2023-05-20T03:33:20;75049.81;;;-143.60;35.20
68329;BME280;55182;56.864;60.554;2023-05-20T03:35:45;75037.75;;;-143.60;34.28
68329;BME280;55182;56.864;60.554;2023-05-20T03:38:12;75017.69;;;-143.60;34.44
68329;BME280;55182;56.864;60.554;2023-05-20T03:40:38;75003.63;;;-143.60;34.58
68329;BME280;55182;56.864;60.554;2023-05-20T03:43:04;74997.59;;;-143.60;34.53
68329;BME280;55182;56.864;60.554;2023-05-20T03:45:30;74983.53;;;-143.60;34.26
68329;BME280;55182;56.864;60.554;2023-05-20T03:48:02;74955.41;;;-143.60;33.59
68329;BME280;55182;56.864;60.554;2023-05-20T03:50:30;74925.28;;;-143.60;33.05
68329;BME280;55182;56.864;60.554;2023-05-20T03:52:56;74897.16;;;-143.60;33.14
68329;BME280;55182;56.864;60.554;2023-05-20T03:55:22;74877.06;;;-143.60;32.17
68329;BME280;55182;56.864;60.554;2023-05-20T03:57:48;74856.97;;;-143.60;32.00
68329;BME280;55182;56.864;60.554;2023-05-20T04:00:13;74848.94;;;-143.60;32.01
68329;BME280;55182;56.864;60.554;2023-05-20T04:02:42;74832.88;;;-143.60;31.77
68329;BME280;55182;56.864;60.554;2023-05-20T04:05:08;74820.81;;;-143.60;31.61
68329;BME280;55182;56.864;60.554;2023-05-20T04:07:36;74816.78;;;-143.60;32.50
68329;BME280;55182;56.864;60.554;2023-05-20T04:10:03;74808.75;;;-143.60;32.43
68329;BME280;55182;56.864;60.554;2023-05-20T04:12:29;74796.69;;;-143.60;32.37
68329;BME280;55182;56.864;60.554;2023-05-20T04:14:58;74794.69;;;-143.60;32.31
68329;BME280;55182;56.864;60.554;2023-05-20T04:17:24;74788.66;;;-143.60;31.70
68329;BME280;55182;56.864;60.554;2023-05-20T04:19:50;74766.56;;;-143.60;31.86
68329;BME280;55182;56.864;60.554;2023-05-20T04:22:15;74752.50;;;-143.60;30.81
68329;BME280;55182;56.864;60.554;2023-05-20T04:24:41;74736.44;;;-143.60;31.31
68329;BME280;55182;56.864;60.554;2023-05-20T04:27:06;74730.41;;;-143.60;31.77
68329;BME280;55182;56.864;60.554;2023-05-20T04:29:32;74736.44;;;-143.60;31.21
68329;BME280;55182;56.864;60.554;2023-05-20T04:31:57;74726.41;;;-143.60;31.18
68329;BME280;55182;56.864;60.554;2023-05-20T04:34:23;74724.38;;;-143.60;30.40
68329;BME280;55182;56.864;60.554;2023-05-20T04:36:48;74720.38;;;-143.60;30.27
68329;BME280;55182;56.864;60.554;2023-05-20T04:39:14;74680.19;;;-143.60;28.78
68329;BME280;55182;56.864;60.554;2023-05-20T04:41:39;74664.13;;;-143.60;29.63
68329;BME280;55182;56.864;60.554;2023-05-20T04:44:05;74654.06;;;-143.60;29.61
68329;BME280;55182;56.864;60.554;2023-05-20T04:46:30;74640.03;;;-143.60;29.27
68329;BME280;55182;56.864;60.554;2023-05-20T04:48:57;74625.97;;;-143.60;29.42
68329;BME280;55182;56.864;60.554;2023-05-20T04:51:22;74615.91;;;-143.60;28.99
68329;BME280;55182;56.864;60.554;2023-05-20T04:53:48;74597.84;;;-143.60;28.54
68329;BME280;55182;56.864;60.554;2023-05-20T04:56:13;74579.75;;;-143.60;28.67
68329;BME280;55182;56.864;60.554;2023-05-20T04:58:39;74567.72;;;-143.60;27.96
68329;BME280;55182;56.864;60.554;2023-05-20T05:01:04;74563.69;;;-143.60;28.34
68329;BME280;55182;56.864;60.554;2023-05-20T05:03:30;74551.63;;;-143.60;28.15
68329;BME280;55182;56.864;60.554;2023-05-20T05:05:56;74539.59;;;-143.60;25.44
68329;BME280;55182;56.864;60.554;2023-05-20T05:08:22;74535.56;;;-143.60;27.05
68329;BME280;55182;56.864;60.554;2023-05-20T05:10:49;74525.53;;;-143.60;27.03
68329;BME280;55182;56.864;60.554;2023-05-20T05:13:15;74515.47;;;-143.60;27.28
68329;BME280;55182;56.864;60.554;2023-05-20T05:15:41;74513.47;;;-143.60;26.73
68329;BME280;55182;56.864;60.554;2023-05-20T05:18:06;74515.47;;;-143.60;27.14
68329;BME280;55182;56.864;60.554;2023-05-20T05:20:33;74499.41;;;-143.60;26.34
68329;BME280;55182;56.864;60.554;2023-05-20T05:22:59;74489.38;;;-143.60;25.96
68329;BME280;55182;56.864;60.554;2023-05-20T05:25:24;74477.31;;;-143.60;26.00
68329;BME280;55182;56.864;60.554;2023-05-20T05:27:50;74479.31;;;-143.60;26.23
68329;BME280;55182;56.864;60.554;2023-05-20T05:30:15;74463.25;;;-143.60;25.81
68329;BME280;55182;56.864;60.554;2023-05-20T05:32:42;74463.25;;;-143.60;25.95
68329;BME280;55182;56.864;60.554;2023-05-20T05:35:07;74463.25;;;-143.60;25.83
68329;BME280;55182;56.864;60.554;2023-05-20T05:37:33;74463.25;;;-143.60;26.97
68329;BME280;55182;56.864;60.554;2023-05-20T05:39:59;74465.25;;;-143.60;26.29
68329;BME280;55182;56.864;60.554;2023-05-20T05:42:25;74451.19;;;-143.60;26.56
68329;BME280;55182;56.864;60.554;2023-05-20T05:44:50;74445.19;;;-143.60;26.32
68329;BME280;55182;56.864;60.554;2023-05-20T05:47:16;74431.13;;;-143.60;26.75
68329;BME280;55182;56.864;60.554;2023-05-20T05:49:42;74423.09;;;-143.60;26.18
68329;BME280;55182;56.864;60.554;2023-05-20T05:52:07;74415.03;;;-143.60;26.07
68329;BME280;55182;56.864;60.554;2023-05-20T05:54:34;74421.06;;;-143.60;26.13
68329;BME280;55182;56.864;60.554;2023-05-20T05:57:00;74417.06;;;-143.60;26.39
68329;BME280;55182;56.864;60.554;2023-05-20T05:59:28;74407.00;;;-143.60;26.18
68329;BME280;55182;56.864;60.554;2023-05-20T06:01:53;74403.00;;;-143.60;26.22
68329;BME280;55182;56.864;60.554;2023-05-20T06:04:19;74390.94;;;-143.60;26.19
68329;BME280;55182;56.864;60.554;2023-05-20T06:06:44;74386.94;;;-143.60;26.23
68329;BME280;55182;56.864;60.554;2023-05-20T06:09:10;74384.91;;;-143.60;26.23
68329;BME280;55182;56.864;60.554;2023-05-20T06:11:36;74374.88;;;-143.60;26.08
68329;BME280;55182;56.864;60.554;2023-05-20T06:14:01;74362.81;;;-143.60;25.79
68329;BME280;55182;56.864;60.554;2023-05-20T06:16:27;74352.78;;;-143.60;26.32
68329;BME280;55182;56.864;60.554;2023-05-20T06:18:52;74346.75;;;-143.60;26.15
68329;BME280;55182;56.864;60.554;2023-05-20T06:21:18;74334.69;;;-143.60;25.68
68329;BME280;55182;56.864;60.554;2023-05-20T06:23:43;74326.66;;;-143.60;26.20
68329;BME280;55182;56.864;60.554;2023-05-20T06:26:10;74314.63;;;-143.60;26.48
68329;BME280;55182;56.864;60.554;2023-05-20T06:28:35;74294.53;;;-143.60;25.32
68329;BME280;55182;56.864;60.554;2023-05-20T06:31:01;74268.41;;;-143.60;25.27
68329;BME280;55182;56.864;60.554;2023-05-20T06:33:31;74242.31;;;-143.60;24.46
68329;BME280;55182;56.864;60.554;2023-05-20T06:36:00;74238.28;;;-143.60;24.46
68329;BME280;55182;56.864;60.554;2023-05-20T06:38:25;74230.25;;;-143.60;24.42
68329;BME280;55182;56.864;60.554;2023-05-20T06:40:51;74234.28;;;-143.60;24.18
68329;BME280;55182;56.864;60.554;2023-05-20T06:43:16;74222.22;;;-143.60;24.65
68329;BME280;55182;56.864;60.554;2023-05-20T06:45:47;74214.19;;;-143.60;25.46
68329;BME280;55182;56.864;60.554;2023-05-20T06:48:27;74206.16;;;-143.60;24.56
68329;BME280;55182;56.864;60.554;2023-05-20T06:50:53;74200.13;;;-143.60;24.82
68329;BME280;55182;56.864;60.554;2023-05-20T06:53:18;74186.06;;;-143.60;24.00
68329;BME280;55182;56.864;60.554;2023-05-20T06:55:44;74176.03;;;-143.60;24.45
68329;BME280;55182;56.864;60.554;2023-05-20T06:58:09;74170.00;;;-143.60;24.22
68329;BME280;55182;56.864;60.554;2023-05-20T07:00:36;74151.94;;;-143.60;24.31
68329;BME280;55182;56.864;60.554;2023-05-20T07:03:02;74127.81;;;-143.60;24.34
68329;BME280;55182;56.864;60.554;2023-05-20T07:05:27;74129.84;;;-143.60;24.62
68329;BME280;55182;56.864;60.554;2023-05-20T07:07:53;74127.81;;;-143.60;24.19
68329;BME280;55182;56.864;60.554;2023-05-20T07:10:19;74121.81;;;-143.60;24.86
68329;BME280;55182;56.864;60.554;2023-05-20T07:12:45;74121.81;;;-143.60;24.71
68329;BME280;55182;56.864;60.554;2023-05-20T07:15:11;74101.72;;;-143.60;24.19
68329;BME280;55182;56.864;60.554;2023-05-20T07:17:37;74099.72;;;-143.60;23.48
68329;BME280;55182;56.864;60.554;2023-05-20T07:20:04;74099.72;;;-143.60;24.09
68329;BME280;55182;56.864;60.554;2023-05-20T07:22:30;74089.66;;;-143.60;24.09
68329;BME280;55182;56.864;60.554;2023-05-20T07:25:06;74089.66;;;-143.60;24.00
68329;BME280;55182;56.864;60.554;2023-05-20T07:27:33;74093.69;;;-143.60;24.39
68329;BME280;55182;56.864;60.554;2023-05-20T07:30:00;74081.63;;;-143.60;24.00
68329;BME280;55182;56.864;60.554;2023-05-20T07:32:25;74061.53;;;-143.60;23.73
68329;BME280;55182;56.864;60.554;2023-05-20T07:34:51;74043.47;;;-143.60;23.46
68329;BME280;55182;56.864;60.554;2023-05-20T07:37:16;74039.44;;;-143.60;23.55
68329;BME280;55182;56.864;60.554;2023-05-20T07:39:42;74027.41;;;-143.60;23.29
68329;BME280;55182;56.864;60.554;2023-05-20T07:42:08;74013.34;;;-143.60;23.23
68329;BME280;55182;56.864;60.554;2023-05-20T07:44:36;74015.34;;;-143.60;23.30
68329;BME280;55182;56.864;60.554;2023-05-20T07:47:02;73997.28;;;-143.60;22.97
68329;BME280;55182;56.864;60.554;2023-05-20T07:49:28;73993.25;;;-143.60;22.49
68329;BME280;55182;56.864;60.554;2023-05-20T07:51:54;73985.22;;;-143.60;23.16
68329;BME280;55182;56.864;60.554;2023-05-20T07:54:19;73973.19;;;-143.60;22.55
68329;BME280;55182;56.864;60.554;2023-05-20T07:56:47;73961.13;;;-143.60;22.71
68329;BME280;55182;56.864;60.554;2023-05-20T07:59:12;73945.06;;;-143.60;22.62
68329;BME280;55182;56.864;60.554;2023-05-20T08:01:42;73945.06;;;-143.60;22.51
68329;BME280;55182;56.864;60.554;2023-05-20T08:04:09;73951.09;;;-143.60;22.40
68329;BME280;55182;56.864;60.554;2023-05-20T08:06:36;73945.06;;;-143.60;22.52
68329;BME280;55182;56.864;60.554;2023-05-20T08:09:03;73941.03;;;-143.60;22.41
68329;BME280;55182;56.864;60.554;2023-05-20T08:11:32;73935.00;;;-143.60;22.21
68329;BME280;55182;56.864;60.554;2023-05-20T08:13:58;73935.00;;;-143.60;22.30
68329;BME280;55182;56.864;60.554;2023-05-20T08:16:27;73933.00;;;-143.60;22.39
68329;BME280;55182;56.864;60.554;2023-05-20T08:18:53;73918.94;;;-143.60;23.15
68329;BME280;55182;56.864;60.554;2023-05-20T08:21:19;73906.91;;;-143.60;22.47
68329;BME280;55182;56.864;60.554;2023-05-20T08:23:45;73888.81;;;-143.60;22.93
68329;BME280;55182;56.864;60.554;2023-05-20T08:26:10;73880.78;;;-143.60;22.82
68329;BME280;55182;56.864;60.554;2023-05-20T08:28:39;73880.78;;;-143.60;21.85
68329;BME280;55182;56.864;60.554;2023-05-20T08:31:06;73876.78;;;-143.60;22.12
68329;BME280;55182;56.864;60.554;2023-05-20T08:33:32;73884.81;;;-143.60;22.16
68329;BME280;55182;56.864;60.554;2023-05-20T08:35:58;73880.78;;;-143.60;22.28
68329;BME280;55182;56.864;60.554;2023-05-20T08:38:23;73876.78;;;-143.60;22.54
68329;BME280;55182;56.864;60.554;2023-05-20T08:40:53;73876.78;;;-143.60;22.93
68329;BME280;55182;56.864;60.554;2023-05-20T08:43:24;73860.72;;;-143.60;23.01
68329;BME280;55182;56.864;60.554;2023-05-20T08:45:50;73860.72;;;-143.60;22.08
68329;BME280;55182;56.864;60.554;2023-05-20T08:48:17;73856.69;;;-143.60;22.33
68329;BME280;55182;56.864;60.554;2023-05-20T08:50:47;73844.66;;;-143.60;22.76
68329;BME280;55182;56.864;60.554;2023-05-20T08:53:14;73834.59;;;-143.60;22.35
68329;BME280;55182;56.864;60.554;2023-05-20T08:55:44;73826.56;;;-143.60;23.07
68329;BME280;55182;56.864;60.554;2023-05-20T08:58:10;73814.50;;;-143.60;23.04
68329;BME280;55182;56.864;60.554;2023-05-20T09:00:36;73802.47;;;-143.60;22.13
68329;BME280;55182;56.864;60.554;2023-05-20T09:03:02;73792.44;;;-143.60;22.21
68329;BME280;55182;56.864;60.554;2023-05-20T09:05:28;73784.38;;;-143.60;21.88
68329;BME280;55182;56.864;60.554;2023-05-20T09:08:03;73782.38;;;-143.60;22.27
68329;BME280;55182;56.864;60.554;2023-05-20T09:10:29;73762.31;;;-143.60;22.68
68329;BME280;55182;56.864;60.554;2023-05-20T09:12:54;73736.19;;;-143.60;21.73
68329;BME280;55182;56.864;60.554;2023-05-20T09:15:20;73724.16;;;-143.60;22.62
68329;BME280;55182;56.864;60.554;2023-05-20T09:17:48;73714.09;;;-143.60;21.74
68329;BME280;55182;56.864;60.554;2023-05-20T09:20:14;73681.97;;;-143.60;21.73
68329;BME280;55182;56.864;60.554;2023-05-20T09:22:39;73667.91;;;-143.60;21.48
68329;BME280;55182;56.864;60.554;2023-05-20T09:25:05;73651.84;;;-143.60;21.33
68329;BME280;55182;56.864;60.554;2023-05-20T09:27:30;73663.91;;;-143.60;20.92
68329;BME280;55182;56.864;60.554;2023-05-20T09:29:56;73671.94;;;-143.60;21.38
68329;BME280;55182;56.864;60.554;2023-05-20T09:32:21;73655.88;;;-143.60;21.28
68329;BME280;55182;56.864;60.554;2023-05-20T09:34:47;73653.84;;;-143.60;20.99
68329;BME280;55182;56.864;60.554;2023-05-20T09:37:13;73645.81;;;-143.60;21.22
68329;BME280;55182;56.864;60.554;2023-05-20T09:39:53;73623.72;;;-143.60;21.15
68329;BME280;55182;56.864;60.554;2023-05-20T09:42:26;73581.56;;;-143.60;20.97
68329;BME280;55182;56.864;60.554;2023-05-20T09:44:52;73545.41;;;-143.60;20.04
68329;BME280;55182;56.864;60.554;2023-05-20T09:47:18;73549.44;;;-143.60;20.14
68329;BME280;55182;56.864;60.554;2023-05-20T09:49:44;73603.66;;;-143.60;20.06
68329;BME280;55182;56.864;60.554;2023-05-20T09:52:10;73643.81;;;-143.60;20.06
68329;BME280;55182;56.864;60.554;2023-05-20T09:54:36;73683.97;;;-143.60;20.06
68329;BME280;55182;56.864;60.554;2023-05-20T09:57:01;73708.06;;;-143.60;20.03
68329;BME280;55182;56.864;60.554;2023-05-20T09:59:27;73732.19;;;-143.60;20.47
68329;BME280;55182;56.864;60.554;2023-05-20T10:01:54;73748.25;;;-143.60;20.81
68329;BME280;55182;56.864;60.554;2023-05-20T10:04:19;73760.28;;;-143.60;20.24
68329;BME280;55182;56.864;60.554;2023-05-20T10:06:49;73780.38;;;-143.60;20.90
68329;BME280;55182;56.864;60.554;2023-05-20T10:14:25;73806.47;;;-143.60;20.69
68329;BME280;55182;56.864;60.554;2023-05-20T10:16:55;73806.47;;;-143.60;21.17
68329;BME280;55182;56.864;60.554;2023-05-20T10:24:28;73796.44;;;-143.60;21.54
68329;BME280;55182;56.864;60.554;2023-05-20T10:26:54;73792.44;;;-143.60;20.97
68329;BME280;55182;56.864;60.554;2023-05-20T10:29:20;73792.44;;;-143.60;21.08
68329;BME280;55182;56.864;60.554;2023-05-20T10:31:49;73776.34;;;-143.60;20.66
68329;BME280;55182;56.864;60.554;2023-05-20T10:34:15;73772.34;;;-143.60;20.81
68329;BME280;55182;56.864;60.554;2023-05-20T10:36:43;73764.31;;;-143.60;21.30
68329;BME280;55182;56.864;60.554;2023-05-20T10:39:13;73764.31;;;-143.60;21.04
68329;BME280;55182;56.864;60.554;2023-05-20T10:41:38;73766.31;;;-143.60;20.94
68329;BME280;55182;56.864;60.554;2023-05-20T10:44:04;73768.31;;;-143.60;20.69
68329;BME280;55182;56.864;60.554;2023-05-20T10:46:30;73776.34;;;-143.60;20.84
68329;BME280;55182;56.864;60.554;2023-05-20T10:48:56;73782.38;;;-143.60;20.86
68329;BME280;55182;56.864;60.554;2023-05-20T10:51:22;73776.34;;;-143.60;20.28
68329;BME280;55182;56.864;60.554;2023-05-20T10:53:50;73776.34;;;-143.60;20.50
68329;BME280;55182;56.864;60.554;2023-05-20T10:56:17;73772.34;;;-143.60;20.28
68329;BME280;55182;56.864;60.554;2023-05-20T10:58:42;73770.34;;;-143.60;20.22
68329;BME280;55182;56.864;60.554;2023-05-20T11:01:08;73774.34;;;-143.60;20.01
68329;BME280;55182;56.864;60.554;2023-05-20T11:03:34;73780.38;;;-143.60;20.01
68329;BME280;55182;56.864;60.554;2023-05-20T11:06:00;73770.34;;;-143.60;20.83
68329;BME280;55182;56.864;60.554;2023-05-20T11:08:28;73762.31;;;-143.60;20.84
68329;BME280;55182;56.864;60.554;2023-05-20T11:10:55;73752.25;;;-143.60;20.94
68329;BME280;55182;56.864;60.554;2023-05-20T11:13:20;73732.19;;;-143.60;20.92
68329;BME280;55182;56.864;60.554;2023-05-20T11:15:47;73724.16;;;-143.60;20.40
68329;BME280;55182;56.864;60.554;2023-05-20T11:18:13;73710.09;;;-143.60;20.72
68329;BME280;55182;56.864;60.554;2023-05-20T11:20:38;73698.03;;;-143.60;20.80
68329;BME280;55182;56.864;60.554;2023-05-20T11:23:04;73690.00;;;-143.60;20.56
68329;BME280;55182;56.864;60.554;2023-05-20T11:25:31;73671.94;;;-143.60;20.31
68329;BME280;55182;56.864;60.554;2023-05-20T11:27:58;73643.81;;;-143.60;20.94
68329;BME280;55182;56.864;60.554;2023-05-20T11:30:23;73603.66;;;-143.60;21.21
68329;BME280;55182;56.864;60.554;2023-05-20T11:32:59;73503.25;;;-143.60;20.54
68329;BME280;55182;56.864;60.554;2023-05-20T11:35:25;73332.56;;;-143.60;19.70
68329;BME280;55182;56.864;60.554;2023-05-20T11:37:57;73248.22;;;-143.60;19.23
68329;BME280;55182;56.864;60.554;2023-05-20T11:40:25;73133.75;;;-143.60;18.98
68329;BME280;55182;56.864;60.554;2023-05-20T11:42:54;73041.38;;;-143.60;18.50
68329;BME280;55182;56.864;60.554;2023-05-20T11:45:20;72949.03;;;-143.60;17.93
68329;BME280;55182;56.864;60.554;2023-05-20T11:47:46;72848.63;;;-143.60;17.78
68329;BME280;55182;56.864;60.554;2023-05-20T11:50:20;72736.19;;;-143.60;17.71
68329;BME280;55182;56.864;60.554;2023-05-20T11:52:46;72643.84;;;-143.60;17.88
68329;BME280;55182;56.864;60.554;2023-05-20T11:55:13;72613.72;;;-143.60;17.61
68329;BME280;55182;56.864;60.554;2023-05-20T11:57:38;72619.75;;;-143.60;17.52
68329;BME280;55182;56.864;60.554;2023-05-20T12:00:05;72619.75;;;-143.60;17.04
68329;BME280;55182;56.864;60.554;2023-05-20T12:02:30;72684.00;;;-143.60;16.72
68329;BME280;55182;56.864;60.554;2023-05-20T12:04:56;72726.16;;;-143.60;16.75
68329;BME280;55182;56.864;60.554;2023-05-20T12:07:21;72728.16;;;-143.60;16.68
68329;BME280;55182;56.864;60.554;2023-05-20T12:09:47;72686.00;;;-143.60;16.70
68329;BME280;55182;56.864;60.554;2023-05-20T12:12:12;72659.91;;;-143.60;16.73
68329;BME280;55182;56.864;60.554;2023-05-20T12:14:37;72613.72;;;-143.60;16.54
68329;BME280;55182;56.864;60.554;2023-05-20T12:17:03;72575.59;;;-143.60;16.60
68329;BME280;55182;56.864;60.554;2023-05-20T12:19:29;72503.31;;;-143.60;17.14
68329;BME280;55182;56.864;60.554;2023-05-20T12:21:54;72445.09;;;-143.60;17.02
68329;BME280;55182;56.864;60.554;2023-05-20T12:24:20;72388.88;;;-143.60;16.96
68329;BME280;55182;56.864;60.554;2023-05-20T12:26:45;72336.66;;;-143.60;16.63
68329;BME280;55182;56.864;60.554;2023-05-20T12:29:10;72282.47;;;-143.60;16.26
68329;BME280;55182;56.864;60.554;2023-05-20T12:31:36;72274.44;;;-143.60;16.13
68329;BME280;55182;56.864;60.554;2023-05-20T12:34:01;72250.34;;;-143.60;16.45
68329;BME280;55182;56.864;60.554;2023-05-20T12:36:27;72228.25;;;-143.60;16.13